Ergebnisliste vom: 23.09.2017 - Ziegenhain2017 - 6 km

weitere Ergebnisse >>

Platz Pl.m PL.w Stnr. Name,Vorname Verein Jhg. AK AKm AKw Endzeit Rückst.
1 1   231 Thieme, Holger SC Riesa 72 Männer 1   0:22:02 0:00:00
2 2   219 Kaubisch, Nico Team Erdinger Alkoholfrei Hirschfeld 97 Männer 2   0:24:04 0:02:02
3 3   229 Rühle, Nico SC Riesa Triathlon   mJug 1   0:24:33 0:02:31
4 4   234 Jancker, Hans-Dieter SV Elbland Coswig-Meißen 52 M65 1   0:25:35 0:03:33
5 5   254 Berger, Victor TuS Coswig 1920 53 M60 1   0:26:22 0:04:20
6 6   258 Neubert, Christian SSV Lommatzsch 88 Männer 3   0:27:03 0:05:01
7   1 201 Baum, Kathrin SV Elbland Coswig-Meißen 74 W40   1 0:27:08 0:05:06
8 7   215 Heyer, Ulrich Chemnitz 53 M60 2   0:28:03 0:06:01
9 8   218 Kaubisch, Daniel Hirschfelder Läufer TEA 90 Männer 4   0:28:05 0:06:03
10 9   235 Schwitalla, Dietmar SC Riesa 56 M60 3   0:28:21 0:06:19
11   2 213 Helas, Marina Citylauf-Verein Dresden 85 W30   1 0:28:24 0:06:22
12 10   263 Winkelmann, Uwe Pratzschwitz 57 M60 4   0:28:53 0:06:51
13   3 250 Kümmel, Petra LG Priestewitz 65 W50+   1 0:29:24 0:07:22
14 11   222 Liebscher, Rainer Freital 49 M65 2   0:29:35 0:07:33
15 12   226 Röhr, Egbert LSV Pirna 49 M65 3   0:29:41 0:07:39
16   4 214 Heyer, Ina Chemnitz 80 W35   1 0:29:42 0:07:40
17 13   328 Möbius, Tino SV Chemie Nünchritz 64 Männer 5   0:29:44 0:07:42
18   5 259 Dewitz, Silke ESV Lok Döbeln 67 W50+   2 0:29:48 0:07:46
19   6 205 Buchsteiner, Merle SV Lok Nossen 8 wJug   1 0:29:56 0:07:54
20 14   204 Buchsteiner, Jörg Sachsen - Nossen 73 Männer 6   0:29:57 0:07:55
21 15   208 Golbs, Michael Tauchclub Abyss Meißen 70 Männer 7   0:30:07 0:08:05
22   7 262 Preußner, Kristina Lauffreunde Nüne 74 W40   2 0:30:11 0:08:09
23 16   224 Möbius, Lars Nossen 86 Männer 8   0:30:14 0:08:12
24   8 221 Lehmann, Anne-Kathrin Meißen 76 W40   3 0:30:40 0:08:38
25   9 241 Hammer, Ines Beckham Strehla 70 W45   1 0:30:49 0:08:47
26   10 238 Schmidt, Sylvia Leuben 62 W50+   3 0:31:25 0:09:23
27 17   257 Gräfe, Niklas Eintracht Dörschnitz 8 mJug 2   0:31:29 0:09:27
28 18   243 Schubert, Lothar WSV Riesa 53 M60 5   0:31:32 0:09:30
29 19   240 Schliwa, Alexander Team Tempus   mJug 3   0:31:39 0:09:37
30 20   202 Behrisch, Siegmar Radeburg 53 M60 6   0:31:44 0:09:42
31   11 212 Häußler, Ines Großenhain 68 W45   2 0:32:01 0:09:59
32   12 217 Irmscher, Antje Riesa 77 W40   4 0:32:04 0:10:02
33   13 209 Grajek, Juliane RuF Prausitz 87 W30   2 0:32:16 0:10:14
34   14 239 Jagusch, Sabine   87 W30   3 0:32:17 0:10:15
35   15 216 Hilse, Yvette Peritz 67 W50+   4 0:32:22 0:10:20
36   16 242 Riedel, Gwen Bela Spielmannzug Nossen 7 wJug   2 0:32:26 0:10:24
37 21   251 Needell, Dirk Coswig 71 Männer 9   0:32:36 0:10:34
38   17 203 Blaas, Aline SV Chemie Nünchritz 97 W20   1 0:32:37 0:10:35
39   18 255 Philipp-Wohs, Peggy TuS Coswig 1920 74 W40   5 0:33:07 0:11:05
40 22   210 Grimm, Frank Nossen 76 Männer 10   0:33:09 0:11:07
41 23   225 Raddatz, Lars Riesa 83 Männer 11   0:33:10 0:11:08
41   19 227 Rühle, Ivonne Lichtensee 71 W45   3 0:33:10 0:11:08
43 24   236 Senf, Dietmar Großbothen 51 M65 4   0:33:20 0:11:18
44   20 230 Schönbrunn, Romy SV Eintracht Ortrand 97 W20   2 0:33:37 0:11:35
45   21 253 Richter, Manuela LG Priestewitz 74 W40   6 0:33:53 0:11:51
46 25   223 Meier, Friedhard Niederau 53 M60 7   0:34:13 0:12:11
47 26   237 Lehmkuhle, Hans-Jürgen SV Motor Großenhain 51 M65 5   0:34:47 0:12:45
48 27   252 Nestler, Peter SV Großenhain 49 M65 6   0:34:50 0:12:48
49   22 261 Jung, Nelli   91 W20   3 0:34:53 0:12:51
50 28   246 Hellfeier, Marko   82 Männer 12   0:34:56 0:12:54
51 29   247 Sickert, Volker   77 Männer 13   0:35:04 0:13:02
52   23 211 Grimm, Katharina Nossen 86 W30   4 0:36:58 0:14:56
53 30   220 Klengel, Frank Naunhof 67 Männer 14   0:37:28 0:15:26
54   24 228 Rühle, Linda Lichtensee 97 W20   4 0:37:30 0:15:28
55 31   207 Oeser, Konrad Friedewald 48 M65 7   0:38:14 0:16:12
56   25 249 Röder, Birgit SC Riesa 68 W45   4 0:38:20 0:16:18
57   26 260 Walther, Doris BSV AOK Leipzig 69 W45   5 0:39:32 0:17:30
58   27 248 Harig, Birgit Löthain 72 W45   6 0:39:35 0:17:33
59 32   245 Schindler, Nick   8 mJug 4   0:41:32 0:19:30
60 33   244 Schindler, Rico   72 Männer 15   0:41:37 0:19:35
61   28 232 Wittek, Andrea Dresden 65 W50+   5 0:42:41 0:20:39
62 34   206 Doege, Detlef Ren(n)tiere Miltitz 57 M60 8   0:54:17 0:32:15
(c) 1990-2012 Blue Wonder Sport Promotion - Andreas Burow - Zeitnahme & Auswertung - www.Triathlon-Service.de